Time;durP1;ratioP1;P1;durP2;ratioP2;P2;SDS_P1;SDS_P2;PMS_P1;PMS_P2;Temp;Humidity;BMP_temperature;BMP_pressure;BME280_temperature;BME280_humidity;BME280_pressure;Samples;Min_cycle;Max_cycle;Signal;HPM_P1;HPM_P2
2022/10/14 00:00:19;;;;;;;25.37;21.40;;;16.00;88.20;;;18.70;63.19;101415.97;5034321;28;20333;-53
2022/10/14 00:02:47;;;;;;;29.63;23.57;;;15.90;88.00;;;18.70;63.30;101399.97;5036148;28;20686;-54
2022/10/14 00:05:14;;;;;;;29.37;24.10;;;16.00;88.00;;;18.69;63.30;101403.66;5036046;28;20190;-54
2022/10/14 00:07:43;;;;;;;31.37;25.37;;;16.00;88.00;;;18.67;63.35;101408.38;5036341;28;20547;-54
2022/10/14 00:10:10;;;;;;;26.57;22.73;;;16.00;87.80;;;18.67;63.09;101395.06;5035206;28;20214;-54
2022/10/14 00:12:37;;;;;;;31.20;25.87;;;16.00;87.80;;;18.68;63.20;101399.38;5018264;28;20636;-54
2022/10/14 00:15:07;;;;;;;30.03;24.90;;;16.00;87.90;;;18.66;63.20;101393.41;5015351;28;20245;-53
2022/10/14 00:17:36;;;;;;;29.40;22.80;;;16.00;87.80;;;18.67;63.28;101405.72;5014833;28;20274;-53
2022/10/14 00:20:04;;;;;;;32.40;25.97;;;16.00;87.80;;;18.66;63.29;101406.75;5015809;28;20777;-53
2022/10/14 00:22:32;;;;;;;31.83;26.00;;;16.00;87.90;;;18.63;63.29;101407.19;5014310;28;20232;-54
2022/10/14 00:24:59;;;;;;;30.40;24.30;;;16.00;87.90;;;18.62;63.33;101410.03;5015102;28;20191;-55
2022/10/14 00:27:26;;;;;;;35.57;25.47;;;16.00;87.90;;;18.58;63.73;101401.66;5015556;28;20241;-56
2022/10/14 00:29:54;;;;;;;29.33;25.03;;;15.90;87.90;;;18.57;63.57;101405.34;5013113;28;20652;-56
2022/10/14 00:32:21;;;;;;;34.60;26.40;;;15.90;87.90;;;18.56;63.58;101395.72;5013103;28;20215;-57
2022/10/14 00:34:50;;;;;;;31.17;25.53;;;15.90;87.80;;;18.58;63.48;101396.31;5015102;28;20203;-56
2022/10/14 00:37:17;;;;;;;33.67;26.33;;;15.90;87.90;;;18.58;63.57;101404.31;5025562;28;20221;-53
2022/10/14 00:39:45;;;;;;;33.33;27.00;;;15.90;87.90;;;18.59;63.35;101395.28;5033551;28;20253;-55
2022/10/14 00:42:14;;;;;;;30.47;24.53;;;15.90;87.90;;;18.61;63.14;101389.75;5033223;28;20213;-53
2022/10/14 00:45:05;;;;;;;32.23;26.67;;;15.90;87.90;;;18.59;63.53;101397.94;5021493;28;20207;-55
2022/10/14 00:47:32;;;;;;;32.53;23.97;;;15.90;87.90;;;18.64;63.17;101395.47;5033702;28;20682;-56
2022/10/14 00:50:02;;;;;;;31.37;26.10;;;15.90;87.80;;;18.65;63.24;101394.44;5034009;28;20194;-56
2022/10/14 00:52:30;;;;;;;30.73;26.33;;;15.90;87.90;;;18.67;63.05;101394.22;5033014;28;20206;-56
2022/10/14 00:55:05;;;;;;;31.77;25.10;;;16.00;87.90;;;18.65;63.03;101397.13;5024416;28;20206;-55
2022/10/14 00:57:34;;;;;;;30.33;26.87;;;16.00;87.80;;;18.66;63.04;101388.06;5033500;28;20197;-54
2022/10/14 01:00:07;;;;;;;34.03;25.47;;;16.00;87.80;;;18.64;62.93;101392.81;5032121;28;20559;-53
2022/10/14 01:02:34;;;;;;;35.50;28.00;;;16.00;87.70;;;18.64;63.14;101395.47;5033253;28;20226;-54
2022/10/14 01:05:08;;;;;;;33.17;26.10;;;16.00;87.80;;;18.63;62.84;101393.84;5033716;28;20195;-55
2022/10/14 01:08:01;;;;;;;30.63;26.93;;;16.00;87.70;;;18.61;63.32;101390.53;5033688;28;20252;-54
2022/10/14 01:10:40;;;;;;;31.50;26.53;;;15.90;87.60;;;18.60;63.05;101388.09;5033327;28;20198;-58
2022/10/14 01:13:22;;;;;;;32.77;26.67;;;16.00;87.60;;;18.56;63.24;101387.72;5014746;28;20215;-54
2022/10/14 01:16:03;;;;;;;32.27;26.00;;;15.90;87.50;;;18.57;63.14;101394.69;5014021;28;20261;-54
2022/10/14 01:18:58;;;;;;;33.70;27.37;;;15.90;87.50;;;18.58;63.23;101391.00;5013633;28;20187;-56
2022/10/14 01:21:35;;;;;;;29.80;25.20;;;15.90;87.70;;;18.60;62.96;101398.78;5028407;28;20273;-55
2022/10/14 01:24:42;;;;;;;34.53;28.50;;;15.90;87.60;;;18.54;63.06;101389.75;5013408;28;20219;-56
2022/10/14 01:27:48;;;;;;;32.83;28.03;;;15.90;87.60;;;18.53;63.11;101392.63;5013156;28;20668;-56
2022/10/14 01:30:19;;;;;;;33.47;26.83;;;15.90;87.60;;;18.55;63.05;101380.75;5014435;28;20198;-56
2022/10/14 01:33:08;;;;;;;30.03;24.13;;;15.90;87.50;;;18.57;62.95;101383.19;5016429;28;20745;-54
2022/10/14 01:35:55;;;;;;;30.63;27.13;;;15.90;87.70;;;18.62;63.01;101384.19;5033299;28;20244;-56
2022/10/14 01:38:31;;;;;;;34.67;28.23;;;15.90;87.80;;;18.64;62.91;101384.81;5033212;28;20194;-55
2022/10/14 01:41:07;;;;;;;31.57;26.70;;;16.00;87.60;;;18.64;62.78;101374.13;5032237;28;20299;-56
2022/10/14 01:43:36;;;;;;;32.73;29.00;;;16.00;88.30;;;18.64;62.90;101376.81;5033238;28;20214;-54
2022/10/14 01:46:09;;;;;;;33.30;28.37;;;16.00;87.30;;;18.61;62.74;101382.53;5032394;28;20190;-55
2022/10/14 01:48:44;;;;;;;32.27;27.57;;;15.90;87.20;;;18.56;62.73;101370.91;5013311;28;20190;-57
2022/10/14 01:51:18;;;;;;;31.67;26.60;;;15.90;87.10;;;18.54;62.94;101368.41;5026563;28;20249;-55
2022/10/14 01:53:56;;;;;;;30.27;26.93;;;15.90;87.30;;;18.49;62.97;101357.59;5013376;28;20211;-54
2022/10/14 01:56:27;;;;;;;35.67;28.23;;;15.90;87.40;;;18.49;63.05;101360.25;5017933;28;20191;-56
2022/10/14 01:58:56;;;;;;;34.43;28.70;;;15.90;87.50;;;18.49;63.17;101362.09;5013200;28;20250;-57
2022/10/14 02:01:26;;;;;;;31.53;25.73;;;15.80;87.40;;;18.48;63.15;101358.63;5013532;28;20215;-55
2022/10/14 02:03:53;;;;;;;36.37;29.60;;;15.80;87.50;;;18.46;63.30;101355.34;5030705;28;20242;-57
2022/10/14 02:06:29;;;;;;;34.57;28.50;;;15.80;87.70;;;18.42;63.22;101348.78;5031555;28;20194;-57
2022/10/14 02:09:11;;;;;;;33.67;28.43;;;15.80;87.80;;;18.39;63.48;101359.84;5032966;28;20198;-57
2022/10/14 02:11:55;;;;;;;35.73;30.53;;;15.80;87.70;;;18.36;63.35;101349.59;5032639;28;20198;-56
2022/10/14 02:14:37;;;;;;;32.70;27.30;;;15.70;87.90;;;18.36;63.35;101343.44;5032346;28;20197;-55
2022/10/14 02:17:17;;;;;;;34.83;29.97;;;15.80;87.90;;;18.38;63.39;101342.22;5013450;28;20195;-56
2022/10/14 02:19:54;;;;;;;34.97;28.83;;;15.70;87.90;;;18.40;63.45;101345.47;5013101;28;20202;-55
2022/10/14 02:22:30;;;;;;;36.80;29.83;;;15.80;88.20;;;18.40;63.47;101350.81;5012104;28;20301;-56
2022/10/14 02:25:18;;;;;;;38.43;30.23;;;15.80;88.10;;;18.38;63.48;101347.53;5012870;28;20195;-57
2022/10/14 02:27:49;;;;;;;38.73;30.50;;;15.70;88.00;;;18.39;63.67;101348.38;5012946;28;20199;-56
2022/10/14 02:30:18;;;;;;;38.13;30.17;;;15.70;88.10;;;18.39;63.51;101346.53;5012894;28;20191;-53
2022/10/14 02:32:50;;;;;;;34.40;30.30;;;15.70;88.10;;;18.38;63.38;101346.72;5011619;28;20215;-57
2022/10/14 02:35:22;;;;;;;35.87;31.17;;;15.70;88.20;;;18.37;63.60;101353.91;5017358;28;20194;-56
2022/10/14 02:37:53;;;;;;;37.80;31.53;;;15.70;88.30;;;18.36;63.56;101346.94;5031377;28;20190;-56
2022/10/14 02:40:28;;;;;;;37.77;31.73;;;15.70;88.30;;;18.33;63.54;101347.34;5031553;28;20598;-56
2022/10/14 02:42:56;;;;;;;37.87;29.27;;;15.70;88.30;;;18.32;63.62;101353.72;5036444;28;20741;-55
2022/10/14 02:45:25;;;;;;;33.23;27.90;;;15.70;88.30;;;18.36;63.73;101351.44;5036006;28;20194;-56
2022/10/14 02:47:54;;;;;;;31.07;26.57;;;15.70;88.50;;;18.41;63.54;101346.31;5036151;28;20206;-54
2022/10/14 02:50:22;;;;;;;39.87;31.93;;;15.70;88.60;;;18.42;63.46;101348.78;5036074;28;20182;-56
2022/10/14 02:52:49;;;;;;;37.57;32.13;;;15.70;88.60;;;18.41;63.62;101347.13;5036187;28;20214;-57
2022/10/14 02:55:16;;;;;;;34.93;30.87;;;15.70;88.40;;;18.38;63.54;101344.03;5025581;28;20652;-55
2022/10/14 02:57:44;;;;;;;37.57;32.93;;;15.70;88.40;;;18.38;63.75;101352.03;5017421;28;20195;-55
2022/10/14 03:00:12;;;;;;;41.77;33.33;;;15.70;88.40;;;18.34;63.87;101341.00;5015256;28;20215;-53
2022/10/14 03:02:40;;;;;;;40.90;33.47;;;15.70;88.60;;;18.31;63.98;101341.41;5026807;28;20224;-57
2022/10/14 03:05:09;;;;;;;41.20;34.40;;;15.70;88.60;;;18.29;64.05;101338.13;5035795;28;20194;-54
2022/10/14 03:07:37;;;;;;;37.60;31.07;;;15.70;88.70;;;18.29;64.17;101335.47;5035833;28;20198;-54
2022/10/14 03:10:04;;;;;;;36.77;32.73;;;15.70;88.70;;;18.26;64.28;101325.22;5035768;28;20193;-56
2022/10/14 03:12:32;;;;;;;44.53;34.53;;;15.70;88.90;;;18.25;64.04;101326.28;5017079;28;20215;-54
2022/10/14 03:14:59;;;;;;;38.57;33.27;;;15.60;89.50;;;18.24;64.18;101324.63;5017209;28;20206;-54
2022/10/14 03:17:27;;;;;;;38.30;32.83;;;15.70;88.90;;;18.25;64.24;101326.28;5015754;28;20257;-56
2022/10/14 03:19:54;;;;;;;42.83;33.70;;;15.60;88.90;;;18.27;64.22;101327.69;5015762;28;20712;-55
2022/10/14 03:22:23;;;;;;;40.13;34.17;;;15.60;88.90;;;18.30;64.16;101329.13;5015234;28;20241;-55
2022/10/14 03:24:50;;;;;;;42.27;33.63;;;15.60;88.90;;;18.33;63.93;101319.91;5015528;28;20218;-57
2022/10/14 03:27:18;;;;;;;38.63;33.17;;;15.60;88.90;;;18.32;64.23;101316.41;5016422;28;20270;-57
2022/10/14 03:29:45;;;;;;;37.13;31.77;;;15.70;88.90;;;18.32;63.82;101316.41;5015431;28;20202;-55
2022/10/14 03:32:12;;;;;;;42.30;34.70;;;15.60;88.70;;;18.29;63.98;101308.81;5025202;28;20226;-57
2022/10/14 03:34:40;;;;;;;38.07;33.70;;;15.60;88.60;;;18.24;63.90;101313.97;5035284;28;20190;-57
2022/10/14 03:37:07;;;;;;;38.27;31.37;;;15.60;88.60;;;18.22;64.09;101316.03;5035116;28;20218;-57
2022/10/14 03:39:36;;;;;;;45.27;35.97;;;15.60;88.60;;;18.23;64.00;101317.69;5034755;28;20528;-57
2022/10/14 03:42:03;;;;;;;38.20;33.00;;;15.60;88.80;;;18.22;64.03;101314.19;5034669;28;20699;-54
2022/10/14 03:44:31;;;;;;;40.33;33.13;;;15.60;88.80;;;18.22;64.15;101310.69;5032976;28;20206;-57
2022/10/14 03:46:58;;;;;;;38.93;33.80;;;15.60;88.80;;;18.23;64.08;101312.34;5035049;28;20194;-57
2022/10/14 03:49:25;;;;;;;40.97;33.07;;;15.60;88.90;;;18.23;64.04;101320.34;5022641;28;20199;-56
2022/10/14 03:51:52;;;;;;;39.00;32.80;;;15.50;88.90;;;18.24;64.06;101316.63;5031954;28;20646;-57
2022/10/14 03:54:20;;;;;;;37.57;30.03;;;15.60;88.90;;;18.26;63.81;101317.22;5034787;28;20647;-54
2022/10/14 03:56:49;;;;;;;38.53;30.97;;;15.60;88.90;;;18.30;63.72;101323.81;5034677;28;20547;-56
2022/10/14 03:59:17;;;;;;;35.80;30.13;;;15.50;88.90;;;18.33;63.78;101317.22;5035119;28;20640;-55
2022/10/14 04:01:44;;;;;;;41.90;35.30;;;15.50;89.00;;;18.40;63.73;101318.81;5023199;28;20233;-55
2022/10/14 04:04:12;;;;;;;40.23;34.67;;;15.60;89.30;;;18.41;63.54;101316.97;5034410;28;20222;-55
2022/10/14 04:06:39;;;;;;;39.47;31.43;;;15.60;89.10;;;18.45;63.28;101315.50;5026447;28;20203;-54
2022/10/14 04:09:06;;;;;;;36.67;30.40;;;15.60;89.00;;;18.45;63.39;101316.34;5033536;28;20244;-54
2022/10/14 04:11:34;;;;;;;43.47;34.53;;;15.70;88.90;;;18.46;63.14;101318.03;5033647;28;20191;-54
2022/10/14 04:14:03;;;;;;;40.43;35.00;;;15.70;88.70;;;18.47;63.34;101319.63;5034847;28;20321;-54
2022/10/14 04:16:30;;;;;;;39.97;34.17;;;15.70;88.60;;;18.49;63.48;101312.28;5032623;28;20559;-53
2022/10/14 04:18:58;;;;;;;41.93;34.60;;;15.70;88.70;;;18.53;63.25;101313.47;5034267;28;20195;-54
2022/10/14 04:21:25;;;;;;;39.90;34.13;;;15.70;88.70;;;18.56;63.15;101314.91;5033731;28;20260;-54
2022/10/14 04:23:53;;;;;;;38.73;33.43;;;15.70;88.60;;;18.56;63.36;101317.56;5026863;28;20219;-54
2022/10/14 04:26:20;;;;;;;38.07;32.80;;;15.80;88.40;;;18.53;63.27;101312.66;5014300;28;20195;-55
2022/10/14 04:28:47;;;;;;;42.53;31.90;;;15.80;88.20;;;18.52;63.20;101306.50;5026670;28;20205;-56
2022/10/14 04:31:16;;;;;;;39.83;32.40;;;15.80;88.30;;;18.55;63.06;101303.41;5033064;28;20186;-55
2022/10/14 04:33:46;;;;;;;43.47;35.87;;;15.70;88.20;;;18.56;62.92;101302.41;5032652;28;20214;-54
2022/10/14 04:36:13;;;;;;;42.83;35.50;;;15.80;88.20;;;18.55;62.97;101305.25;5033789;28;20199;-54
2022/10/14 04:38:41;;;;;;;39.83;32.57;;;15.80;88.20;;;18.55;63.09;101306.06;5033986;28;20202;-56
2022/10/14 04:41:08;;;;;;;40.07;31.83;;;15.80;88.10;;;18.53;62.94;101292.16;5032073;28;20571;-54
2022/10/14 04:43:35;;;;;;;36.70;31.17;;;15.80;88.10;;;18.55;62.86;101292.75;5033831;28;20617;-54
2022/10/14 04:46:03;;;;;;;40.27;35.37;;;15.80;89.00;;;18.57;62.96;101292.53;5033637;28;20252;-54
2022/10/14 04:48:31;;;;;;;37.53;31.50;;;15.80;88.20;;;18.59;63.04;101299.28;5033642;28;20199;-55
2022/10/14 04:50:59;;;;;;;38.03;33.53;;;15.80;88.20;;;18.61;62.98;101297.22;5023602;28;20194;-55
2022/10/14 04:53:26;;;;;;;40.03;32.43;;;15.80;88.20;;;18.63;62.85;101299.69;5033566;28;20214;-55
2022/10/14 04:55:53;;;;;;;42.83;35.77;;;15.80;88.00;;;18.60;62.79;101298.25;5032403;28;20202;-55
2022/10/14 04:58:21;;;;;;;39.53;33.33;;;15.80;87.80;;;18.59;62.83;101301.94;5031203;28;20341;-57
2022/10/14 05:00:48;;;;;;;39.03;31.00;;;15.90;87.80;;;18.58;62.82;101299.50;5013450;28;20281;-55
2022/10/14 05:03:15;;;;;;;37.37;33.13;;;15.80;87.60;;;18.56;62.93;101297.06;5029621;28;20237;-55
2022/10/14 05:05:44;;;;;;;37.10;32.93;;;15.90;87.70;;;18.55;62.72;101295.41;5033081;28;20194;-56
2022/10/14 05:08:11;;;;;;;41.37;34.80;;;15.80;87.70;;;18.53;62.70;101292.16;5032796;28;20206;-55
2022/10/14 05:10:39;;;;;;;37.50;33.27;;;15.80;87.70;;;18.50;62.81;101286.41;5032596;28;20191;-57
2022/10/14 05:13:06;;;;;;;42.83;35.43;;;15.80;87.70;;;18.48;62.91;101288.47;5032919;28;20294;-56
2022/10/14 05:15:33;;;;;;;47.50;35.33;;;15.80;87.70;;;18.48;62.98;101294.63;5030689;28;20190;-56
2022/10/14 05:18:01;;;;;;;38.40;31.80;;;15.80;87.70;;;18.46;63.12;101291.34;5013795;28;20198;-54
2022/10/14 05:20:28;;;;;;;40.87;34.23;;;15.80;87.60;;;18.45;62.86;101294.19;5013507;28;20246;-55
2022/10/14 05:22:57;;;;;;;41.30;34.27;;;15.70;87.60;;;18.41;62.78;101298.31;5013142;28;20269;-56
2022/10/14 05:25:24;;;;;;;40.67;34.47;;;15.80;87.50;;;18.36;62.98;101298.94;5028546;28;20205;-55
2022/10/14 05:27:52;;;;;;;38.07;32.47;;;15.70;87.50;;;18.36;63.17;101300.78;5032839;28;20193;-53
2022/10/14 05:30:19;;;;;;;40.47;34.40;;;15.70;88.30;;;18.36;63.10;101290.97;5032784;28;20224;-57
2022/10/14 05:32:47;;;;;;;40.20;35.53;;;15.70;87.70;;;18.34;63.05;101287.69;5017062;28;20215;-57
2022/10/14 05:35:14;;;;;;;38.57;33.60;;;15.70;87.60;;;18.34;63.15;101287.69;5016047;28;20662;-54
2022/10/14 05:38:01;;;;;;;35.63;30.13;;;15.70;87.60;;;18.36;62.97;101288.28;5033509;28;20198;-55
2022/10/14 05:40:30;;;;;;;43.00;36.33;;;15.70;87.60;;;18.40;62.89;101302.81;5032047;28;20286;-55
2022/10/14 05:42:58;;;;;;;47.67;36.10;;;15.70;87.70;;;18.39;62.69;101295.88;5032780;28;20272;-56
2022/10/14 05:45:25;;;;;;;42.00;33.73;;;15.70;87.60;;;18.37;62.66;101292.59;5033245;28;20191;-53
2022/10/14 05:47:53;;;;;;;40.13;34.87;;;15.70;87.50;;;18.37;62.77;101292.59;5032237;28;20198;-54
2022/10/14 05:50:20;;;;;;;40.60;33.83;;;15.70;87.50;;;18.39;62.73;101285.22;5030889;28;20198;-55
2022/10/14 05:52:48;;;;;;;45.07;36.83;;;15.70;87.50;;;18.39;62.51;101287.06;5012255;28;20212;-55
2022/10/14 05:55:17;;;;;;;41.73;33.07;;;15.70;87.30;;;18.36;62.83;101280.28;5011700;28;20490;-56
2022/10/14 05:57:44;;;;;;;42.50;34.27;;;15.70;87.20;;;18.37;62.84;101276.63;5012775;28;20191;-54
2022/10/14 06:00:13;;;;;;;44.73;36.67;;;15.70;87.30;;;18.41;62.65;101283.16;5012978;28;20336;-55
2022/10/14 06:02:40;;;;;;;43.83;36.27;;;15.70;87.30;;;18.45;62.48;101281.69;5023299;28;20588;-56
2022/10/14 06:05:08;;;;;;;43.30;35.40;;;15.70;87.40;;;18.45;62.44;101281.69;5032102;28;20210;-54
2022/10/14 06:07:35;;;;;;;43.60;35.13;;;15.70;87.20;;;18.42;62.64;101278.63;5031787;28;20198;-55
2022/10/14 06:10:03;;;;;;;35.67;29.50;;;15.70;87.00;;;18.44;62.70;101285.41;5013383;28;20640;-54
2022/10/14 06:12:32;;;;;;;38.53;31.43;;;15.80;87.40;;;18.52;62.66;101282.50;5014745;28;20676;-54
2022/10/14 06:14:59;;;;;;;36.53;30.03;;;15.70;87.40;;;18.59;62.34;101285.94;5017183;28;20206;-54
2022/10/14 06:17:27;;;;;;;46.97;37.93;;;15.80;87.50;;;18.59;62.19;101275.28;5016420;28;20245;-54
2022/10/14 06:19:55;;;;;;;48.93;37.90;;;15.80;87.40;;;18.52;62.39;101279.81;5019236;28;20195;-53
2022/10/14 06:22:22;;;;;;;42.27;34.13;;;15.80;87.30;;;18.42;62.73;101282.13;5036328;28;20256;-54
2022/10/14 06:24:50;;;;;;;46.10;36.70;;;15.80;87.10;;;18.36;62.69;101280.28;5036373;28;20268;-52
2022/10/14 06:27:18;;;;;;;46.87;34.73;;;15.80;87.10;;;18.34;62.90;101281.53;5019136;28;20195;-55
2022/10/14 06:29:47;;;;;;;44.43;33.13;;;15.80;87.10;;;18.32;63.06;101268.44;5016503;28;20294;-55
2022/10/14 06:32:14;;;;;;;49.90;35.47;;;15.70;87.30;;;18.32;63.08;101271.09;5019569;28;20222;-54
2022/10/14 06:34:41;;;;;;;46.00;36.23;;;15.70;87.40;;;18.40;63.11;101270.84;5035432;28;20220;-57
2022/10/14 06:37:09;;;;;;;38.33;30.87;;;15.70;87.80;;;18.51;62.79;101280.88;5035753;28;20187;-54
2022/10/14 06:39:36;;;;;;;45.37;33.90;;;15.70;87.80;;;18.57;62.57;101281.84;5036050;28;20716;-54
2022/10/14 06:42:04;;;;;;;47.30;35.00;;;15.80;87.70;;;18.61;62.36;101283.88;5036081;28;20218;-54
2022/10/14 06:44:38;;;;;;;45.23;34.13;;;15.80;87.50;;;18.64;62.39;101272.78;5021073;28;20240;-55
2022/10/14 06:47:07;;;;;;;46.50;34.97;;;15.80;87.40;;;18.69;62.08;101282.81;5015693;28;20195;-56
2022/10/14 06:49:35;;;;;;;47.43;34.83;;;15.80;87.40;;;18.65;62.03;101279.78;5016077;28;20517;-55
2022/10/14 06:52:03;;;;;;;48.17;35.57;;;15.90;86.90;;;18.61;61.89;101278.53;5035361;28;20190;-54
2022/10/14 06:54:30;;;;;;;48.37;35.37;;;15.90;86.60;;;18.60;61.88;101276.09;5019737;28;20206;-56
2022/10/14 06:57:05;;;;;;;45.80;33.63;;;15.90;86.60;;;18.55;62.02;101276.75;5035479;28;20237;-54
2022/10/14 06:59:32;;;;;;;45.67;34.40;;;15.90;86.40;;;18.49;62.10;101271.47;5036141;28;20201;-56
2022/10/14 07:01:59;;;;;;;46.70;34.87;;;15.90;86.40;;;18.39;62.33;101274.53;5026672;28;20221;-54
2022/10/14 07:04:28;;;;;;;40.70;32.40;;;15.80;86.30;;;18.35;62.12;101278.66;5035399;28;20214;-56
2022/10/14 07:06:57;;;;;;;46.40;35.00;;;15.80;86.40;;;18.31;62.52;101277.44;5035292;28;20660;-54
2022/10/14 07:09:25;;;;;;;44.90;34.23;;;15.80;86.50;;;18.34;62.68;101270.88;5034357;28;20281;-56
2022/10/14 07:11:52;;;;;;;42.03;32.40;;;15.80;86.70;;;18.38;62.48;101270.22;5034983;28;20183;-56
2022/10/14 07:14:20;;;;;;;41.10;30.83;;;15.80;86.80;;;18.46;62.60;101258.53;5035111;28;20249;-56
2022/10/14 07:16:47;;;;;;;40.67;30.87;;;15.80;87.00;;;18.59;62.58;101269.94;5035079;28;20275;-56
2022/10/14 07:19:14;;;;;;;42.10;32.33;;;15.80;87.10;;;18.65;61.68;101271.78;5024909;28;20199;-56
2022/10/14 07:21:45;;;;;;;40.40;27.80;;;15.90;86.80;;;18.70;62.00;101271.94;5014958;28;20218;-56
2022/10/14 07:24:13;;;;;;;39.27;29.87;;;15.90;86.70;;;18.77;61.54;101278.06;5013971;28;20219;-55
2022/10/14 07:26:40;;;;;;;39.07;30.77;;;15.90;86.50;;;18.78;61.48;101279.69;5033141;28;20198;-56
2022/10/14 07:29:08;;;;;;;39.67;31.30;;;16.00;86.10;;;18.72;61.10;101269.88;5034631;28;20668;-56
2022/10/14 07:31:37;;;;;;;37.33;28.93;;;16.00;85.50;;;18.69;61.12;101278.31;5033993;28;20602;-54
2022/10/14 07:34:05;;;;;;;42.53;31.93;;;16.00;85.30;;;18.73;61.21;101281.38;5035517;28;20225;-55
2022/10/14 07:36:33;;;;;;;39.10;30.70;;;16.00;85.20;;;18.76;61.01;101276.41;5032272;28;20207;-57
2022/10/14 07:39:04;;;;;;;39.13;29.50;;;16.00;85.10;;;18.77;60.93;101278.06;5034465;28;20201;-54
2022/10/14 07:41:33;;;;;;;39.27;29.80;;;16.10;85.10;;;18.82;60.85;101272.09;5029621;28;20191;-56
2022/10/14 07:44:04;;;;;;;42.17;29.63;;;16.10;85.10;;;18.80;60.59;101274.94;5014794;28;20372;-57
2022/10/14 07:46:35;;;;;;;36.23;28.53;;;16.10;84.90;;;18.80;60.47;101282.94;5014675;28;20201;-56
2022/10/14 07:49:06;;;;;;;36.87;28.63;;;16.10;84.80;;;18.85;60.65;101283.13;5015348;28;20699;-54
2022/10/14 07:51:35;;;;;;;34.97;28.83;;;16.10;85.00;;;18.97;60.88;101277.13;5030309;28;20202;-55
2022/10/14 07:54:11;;;;;;;34.77;28.53;;;16.20;85.30;;;19.02;60.51;101269.28;5033065;28;20233;-56
2022/10/14 07:56:41;;;;;;;39.50;29.40;;;16.20;85.00;;;19.06;59.97;101278.47;5034380;28;20632;-57
2022/10/14 07:59:09;;;;;;;36.17;28.17;;;16.20;84.70;;;19.06;60.10;101275.81;5017958;28;20195;-57
2022/10/14 08:01:36;;;;;;;31.03;24.73;;;16.30;84.30;;;19.07;59.88;101277.44;5016951;28;21962;-56
2022/10/14 08:04:04;;;;;;;37.63;27.77;;;16.30;84.20;;;19.11;59.56;101274.09;5035670;28;20218;-57
2022/10/14 08:06:32;;;;;;;36.00;27.63;;;16.30;84.10;;;19.12;59.44;101273.09;5037007;28;20209;-58
2022/10/14 08:08:59;;;;;;;31.77;23.90;;;16.30;83.90;;;19.16;59.57;101276.16;5034979;28;20198;-54
2022/10/14 08:11:28;;;;;;;30.70;25.27;;;16.30;83.80;;;19.20;59.55;101267.50;5031739;28;20244;-54
2022/10/14 08:13:58;;;;;;;31.87;24.77;;;16.40;83.60;;;19.21;59.17;101273.63;5032340;28;20695;-55
2022/10/14 08:16:27;;;;;;;30.60;24.80;;;16.40;83.00;;;19.24;58.76;101267.84;5033879;28;20644;-57
2022/10/14 08:18:57;;;;;;;30.83;23.90;;;16.40;82.90;;;19.25;58.62;101269.50;5033819;28;20194;-56
2022/10/14 08:21:25;;;;;;;32.60;24.57;;;16.50;82.40;;;19.33;58.42;101263.88;5033368;28;20194;-56
2022/10/14 08:23:53;;;;;;;30.93;23.57;;;16.50;82.50;;;19.40;58.19;101262.00;5034182;28;20273;-55
2022/10/14 08:26:26;;;;;;;30.63;24.47;;;16.50;81.90;;;19.48;57.76;101259.88;5017388;28;20202;-57
2022/10/14 08:28:56;;;;;;;30.23;23.37;;;16.60;81.90;;;19.56;57.18;101258.78;5020561;28;20178;-55
2022/10/14 08:31:24;;;;;;;33.67;23.47;;;16.70;80.80;;;19.69;56.92;101261.31;5020905;28;20270;-56
2022/10/14 08:33:52;;;;;;;32.67;24.90;;;16.70;80.70;;;19.90;56.16;101258.19;5013976;28;20681;-54
2022/10/14 08:36:20;;;;;;;32.10;23.90;;;16.80;80.30;;;19.99;55.26;101258.72;5027162;28;20193;-55
2022/10/14 08:38:51;;;;;;;28.47;22.57;;;16.90;78.60;;;20.04;54.92;101259.66;5033819;28;20253;-55
2022/10/14 08:41:50;;;;;;;24.90;21.17;;;17.10;78.00;;;20.08;54.78;101268.06;5033409;28;20241;-57
2022/10/14 08:44:24;;;;;;;25.70;21.20;;;17.10;77.90;;;20.02;53.96;101259.09;5029949;28;20202;-55
2022/10/14 08:46:57;;;;;;;26.30;21.10;;;17.20;76.60;;;19.87;53.97;101258.63;5023923;28;20202;-57
2022/10/14 08:49:31;;;;;;;31.93;22.17;;;17.20;75.50;;;19.82;54.45;101258.50;5013687;28;20214;-56
2022/10/14 08:52:04;;;;;;;27.50;22.80;;;17.20;76.00;;;19.90;54.51;101260.03;5031346;28;20198;-54
2022/10/14 08:54:38;;;;;;;27.50;21.87;;;17.20;76.00;;;19.96;53.42;101262.66;5033321;28;20256;-57
2022/10/14 08:57:15;;;;;;;27.13;19.83;;;17.20;75.50;;;19.98;53.48;101260.59;5033347;28;20309;-54
2022/10/14 08:59:45;;;;;;;27.27;20.57;;;17.30;74.80;;;20.08;53.88;101254.72;5013458;28;20523;-56
2022/10/14 09:02:37;;;;;;;26.80;20.07;;;17.40;75.40;;;20.10;53.32;101253.44;5015581;28;20227;-55
2022/10/14 09:05:12;;;;;;;29.90;20.63;;;17.40;75.10;;;20.07;53.19;101258.41;5014898;28;20199;-55
2022/10/14 09:07:43;;;;;;;25.90;21.10;;;17.40;74.70;;;20.02;53.33;101260.94;5019640;28;20206;-56
2022/10/14 09:10:22;;;;;;;24.20;20.03;;;17.40;74.60;;;20.05;52.91;101255.97;5032268;28;20190;-56
2022/10/14 09:12:52;;;;;;;28.43;21.07;;;17.40;74.20;;;20.03;52.99;101258.06;5033136;28;20300;-55
2022/10/14 09:15:31;;;;;;;27.50;19.13;;;17.30;73.50;;;19.89;52.54;101251.22;5033620;28;20186;-55
2022/10/14 09:18:11;;;;;;;23.60;18.93;;;17.30;73.50;;;19.90;53.45;101252.03;5039538;28;20213;-56
2022/10/14 09:20:41;;;;;;;24.10;19.10;;;17.30;74.00;;;20.13;52.98;101252.97;5032100;28;20667;-55
2022/10/14 09:23:16;;;;;;;21.13;18.30;;;17.30;74.70;;;20.64;52.93;101249.06;5030766;28;20682;-56
2022/10/14 09:26:07;;;;;;;25.97;19.47;;;17.40;75.60;;;20.82;51.67;101238.28;5023966;28;20245;-56
2022/10/14 09:28:39;;;;;;;24.53;18.30;;;17.60;74.40;;;20.85;51.40;101244.00;5032784;28;20265;-57
2022/10/14 09:31:12;;;;;;;21.37;17.63;;;17.80;74.00;;;21.34;51.74;101250.03;5031500;28;20201;-57
2022/10/14 09:33:41;;;;;;;25.73;20.90;;;17.90;74.40;;;21.57;49.34;101245.47;5032996;28;20198;-57
2022/10/14 09:36:16;;;;;;;24.03;19.23;;;18.20;72.90;;;21.55;49.38;101247.59;5032379;28;20281;-54
2022/10/14 09:38:46;;;;;;;22.77;19.43;;;18.30;71.60;;;21.33;49.60;101243.84;5032668;28;20712;-56
2022/10/14 09:41:15;;;;;;;22.73;18.97;;;18.30;70.50;;;21.45;49.93;101241.16;5032282;28;20570;-56
2022/10/14 09:44:20;;;;;;;21.70;18.50;;;18.40;71.50;;;21.36;49.34;101238.03;5032644;28;20222;-56
2022/10/14 09:46:55;;;;;;;22.93;17.93;;;18.40;70.30;;;21.19;49.47;101245.13;5033810;28;20221;-55
2022/10/14 09:49:36;;;;;;;20.50;17.87;;;18.40;69.50;;;21.06;49.34;101226.59;5036855;28;20248;-57
2022/10/14 09:52:04;;;;;;;19.10;16.60;;;18.30;69.80;;;21.12;50.09;101223.00;5030957;28;20187;-55
2022/10/14 09:54:33;;;;;;;21.30;17.90;;;18.30;70.70;;;21.35;49.78;101225.69;5017137;28;20197;-56
2022/10/14 09:57:06;;;;;;;19.47;17.43;;;18.30;70.70;;;21.81;48.88;101234.72;5017733;28;20547;-56
2022/10/14 09:59:49;;;;;;;18.73;16.73;;;18.40;70.50;;;22.15;47.44;101225.81;5016365;28;20276;-57
2022/10/14 10:02:23;;;;;;;20.40;17.07;;;18.50;69.40;;;22.40;46.10;101223.59;5023852;28;20214;-57
2022/10/14 10:04:53;;;;;;;20.27;16.03;;;18.80;68.50;;;22.43;46.71;101223.13;5037203;28;20173;-57
2022/10/14 10:07:30;;;;;;;20.03;16.13;;;18.90;68.20;;;22.52;46.48;101219.00;5036580;28;20244;-56
2022/10/14 10:09:59;;;;;;;18.80;16.30;;;19.10;67.60;;;22.78;45.76;101225.66;5018468;28;20202;-57
2022/10/14 10:12:31;;;;;;;17.20;15.40;;;19.20;67.20;;;22.97;45.56;101223.53;5016180;28;20211;-55
2022/10/14 10:15:04;;;;;;;15.73;13.83;;;19.40;67.00;;;23.30;45.68;101213.59;5017716;28;20660;-54